createdAt,value
2017-05-13T00:00:12.700Z,14.46
2017-05-13T00:01:12.731Z,14.46
2017-05-13T00:02:12.666Z,14.48
2017-05-13T00:03:12.642Z,14.38
2017-05-13T00:04:12.613Z,14.44
2017-05-13T00:05:12.596Z,14.45
2017-05-13T00:06:12.574Z,14.42
2017-05-13T00:07:12.549Z,14.31
2017-05-13T00:08:12.538Z,14.38
2017-05-13T00:09:12.510Z,14.38
2017-05-13T00:10:12.492Z,14.3
2017-05-13T00:11:12.473Z,14.31
2017-05-13T00:12:12.463Z,14.3
2017-05-13T00:13:12.468Z,14.34
2017-05-13T00:14:12.120Z,14.29
2017-05-13T00:15:12.394Z,14.29
2017-05-13T00:16:12.374Z,14.3
2017-05-13T00:17:12.345Z,14.26
2017-05-13T00:18:12.327Z,14.34
2017-05-13T00:19:12.297Z,14.29
2017-05-13T00:20:12.281Z,14.24
2017-05-13T00:21:12.305Z,14.31
2017-05-13T00:22:12.253Z,14.35
2017-05-13T00:23:12.215Z,14.29
2017-05-13T00:24:12.197Z,14.27
2017-05-13T00:25:12.175Z,14.29
2017-05-13T00:26:12.156Z,14.44
2017-05-13T00:27:12.192Z,14.29
2017-05-13T00:28:12.124Z,14.46
2017-05-13T00:29:12.090Z,14.39
2017-05-13T00:30:12.075Z,14.39
2017-05-13T00:31:12.050Z,14.38
2017-05-13T00:32:12.028Z,14.38
2017-05-13T00:33:12.008Z,14.42
2017-05-13T00:34:11.982Z,14.44
2017-05-13T00:35:11.664Z,14.44
2017-05-13T00:36:11.934Z,14.49
2017-05-13T00:37:11.924Z,14.53
2017-05-13T00:38:11.944Z,14.56
2017-05-13T00:39:11.878Z,14.54
2017-05-13T00:40:11.861Z,14.59
2017-05-13T00:41:11.830Z,14.63
2017-05-13T00:42:11.817Z,14.66
2017-05-13T00:43:11.487Z,14.64
2017-05-13T00:44:11.772Z,14.63
2017-05-13T00:45:11.800Z,14.56
2017-05-13T00:46:11.471Z,14.56
2017-05-13T00:47:11.727Z,14.57
2017-05-13T00:48:11.390Z,14.6
2017-05-13T00:49:11.672Z,14.52
2017-05-13T00:50:11.705Z,14.69
2017-05-13T00:51:11.332Z,14.63
2017-05-13T00:52:11.607Z,14.64
2017-05-13T00:53:11.583Z,14.57
2017-05-13T00:54:11.559Z,14.57
2017-05-13T00:55:11.541Z,14.57
2017-05-13T00:56:11.227Z,14.49
2017-05-13T00:57:11.497Z,14.56
2017-05-13T00:58:11.530Z,14.57
2017-05-13T00:59:11.168Z,14.53
2017-05-13T01:00:11.456Z,14.52
2017-05-13T01:01:11.422Z,14.56
2017-05-13T01:02:11.399Z,14.6
2017-05-13T01:03:11.072Z,14.59
2017-05-13T01:04:11.364Z,14.56
2017-05-13T01:05:11.031Z,14.6
2017-05-13T01:06:11.301Z,14.61
2017-05-13T01:07:11.286Z,14.6
2017-05-13T01:08:11.265Z,14.56
2017-05-13T01:09:11.294Z,14.59
2017-05-13T01:10:11.221Z,14.56
2017-05-13T01:11:10.902Z,14.6
2017-05-13T01:12:10.880Z,14.53
2017-05-13T01:13:11.161Z,14.61
2017-05-13T01:14:11.142Z,14.61
2017-05-13T01:15:11.125Z,14.74
2017-05-13T01:16:11.111Z,14.64
2017-05-13T01:17:11.082Z,14.6
2017-05-13T01:18:11.053Z,14.61
2017-05-13T01:19:11.034Z,14.53
2017-05-13T01:20:11.015Z,14.54
2017-05-13T01:21:10.694Z,14.54
2017-05-13T01:22:10.977Z,14.57
2017-05-13T01:23:10.948Z,14.53
2017-05-13T01:24:10.927Z,14.41
2017-05-13T01:25:10.906Z,14.44
2017-05-13T01:26:10.892Z,14.48
2017-05-13T01:27:10.574Z,14.41
2017-05-13T01:28:10.846Z,14.38
2017-05-13T01:29:10.825Z,14.44
2017-05-13T01:30:10.798Z,14.39
2017-05-13T01:31:10.782Z,14.41
2017-05-13T01:32:10.757Z,14.44
2017-05-13T01:33:10.434Z,14.29
2017-05-13T01:34:10.409Z,14.31
2017-05-13T01:35:10.394Z,14.34
2017-05-13T01:36:10.673Z,14.31
2017-05-13T01:37:10.650Z,14.29
2017-05-13T01:38:10.639Z,14.23
2017-05-13T01:39:10.611Z,14.26
2017-05-13T01:40:10.590Z,14.19
2017-05-13T01:41:10.569Z,14.21
2017-05-13T01:42:10.543Z,14.21
2017-05-13T01:43:10.232Z,14.19
2017-05-13T01:44:10.508Z,14.19
2017-05-13T01:45:10.482Z,14.17
2017-05-13T01:46:10.157Z,14.2
2017-05-13T01:47:10.442Z,14.16
2017-05-13T01:48:10.423Z,14.11
2017-05-13T01:49:10.401Z,14.24
2017-05-13T01:50:10.073Z,14.09
2017-05-13T01:51:10.351Z,14.08
2017-05-13T01:52:10.376Z,14.09
2017-05-13T01:53:10.322Z,14.06
2017-05-13T01:54:10.289Z,14.09
2017-05-13T01:55:10.278Z,14.09
2017-05-13T01:56:10.251Z,14.11
2017-05-13T01:57:10.238Z,14.02
2017-05-13T01:58:09.910Z,14.17
2017-05-13T01:59:10.189Z,14.05
2017-05-13T02:00:09.876Z,14.01
2017-05-13T02:01:10.140Z,14.05
2017-05-13T02:02:09.820Z,14.08
2017-05-13T02:03:10.097Z,14.01
2017-05-13T02:04:10.083Z,14.05
2017-05-13T02:05:10.056Z,14.06
2017-05-13T02:06:10.045Z,14.02
2017-05-13T02:07:10.017Z,13.99
2017-05-13T02:08:09.989Z,14.06
2017-05-13T02:09:09.980Z,14.04
2017-05-13T02:10:09.960Z,14.08
2017-05-13T02:11:09.931Z,14.04
2017-05-13T02:12:09.911Z,14.05
2017-05-13T02:13:09.883Z,14.06
2017-05-13T02:14:09.875Z,14.06
2017-05-13T02:15:09.542Z,14.06
2017-05-13T02:16:09.820Z,14.06
2017-05-13T02:17:09.801Z,14.02
2017-05-13T02:18:09.779Z,13.94
2017-05-13T02:19:09.765Z,14.01
2017-05-13T02:20:09.739Z,13.99
2017-05-13T02:21:09.721Z,13.96
2017-05-13T02:22:09.696Z,13.91
2017-05-13T02:23:09.678Z,13.96
2017-05-13T02:24:09.656Z,13.9
2017-05-13T02:25:09.634Z,13.86
2017-05-13T02:26:09.615Z,13.94
2017-05-13T02:27:09.290Z,13.84
2017-05-13T02:28:09.262Z,13.81
2017-05-13T02:29:09.248Z,13.9
2017-05-13T02:30:09.541Z,13.94
2017-05-13T02:31:09.506Z,13.96
2017-05-13T02:32:09.179Z,13.93
2017-05-13T02:33:09.460Z,13.86
2017-05-13T02:34:09.440Z,13.87
2017-05-13T02:35:09.413Z,13.88
2017-05-13T02:36:09.402Z,13.84
2017-05-13T02:37:09.075Z,13.87
2017-05-13T02:38:09.352Z,13.87
2017-05-13T02:39:09.335Z,13.86
2017-05-13T02:40:09.007Z,13.83
2017-05-13T02:41:09.286Z,13.81
2017-05-13T02:42:09.054Z,13.81
2017-05-13T02:43:09.246Z,13.72
2017-05-13T02:44:09.222Z,13.81
2017-05-13T02:45:09.199Z,13.75
2017-05-13T02:46:09.175Z,13.73
2017-05-13T02:47:09.207Z,13.73
2017-05-13T02:48:09.197Z,13.72
2017-05-13T02:49:09.126Z,13.71
2017-05-13T02:50:09.103Z,13.71
2017-05-13T02:51:09.074Z,13.69
2017-05-13T02:52:09.107Z,13.71
2017-05-13T02:53:08.739Z,13.63
2017-05-13T02:54:09.018Z,13.61
2017-05-13T02:55:08.702Z,13.61
2017-05-13T02:56:08.980Z,13.61
2017-05-13T02:57:08.945Z,13.63
2017-05-13T02:58:08.924Z,13.63
2017-05-13T02:59:08.906Z,13.63
2017-05-13T03:00:08.877Z,13.61
2017-05-13T03:01:08.855Z,13.65
2017-05-13T03:02:08.543Z,13.62
2017-05-13T03:03:08.511Z,13.62
2017-05-13T03:04:08.796Z,13.68
2017-05-13T03:05:08.777Z,13.61
2017-05-13T03:06:08.749Z,13.57
2017-05-13T03:07:08.735Z,13.55
2017-05-13T03:08:08.707Z,13.57
2017-05-13T03:09:08.690Z,13.61
2017-05-13T03:10:08.666Z,13.63
2017-05-13T03:11:08.647Z,13.55
2017-05-13T03:12:08.633Z,13.61
2017-05-13T03:13:08.602Z,13.65
2017-05-13T03:14:08.578Z,13.54
2017-05-13T03:15:08.565Z,13.65
2017-05-13T03:16:08.541Z,13.48
2017-05-13T03:17:08.567Z,13.61
2017-05-13T03:18:08.494Z,13.48
2017-05-13T03:19:08.169Z,13.65
2017-05-13T03:20:08.460Z,13.57
2017-05-13T03:21:08.435Z,13.62
2017-05-13T03:22:08.462Z,13.59
2017-05-13T03:23:08.447Z,13.66
2017-05-13T03:24:08.364Z,13.61
2017-05-13T03:25:08.339Z,13.65
2017-05-13T03:26:08.319Z,13.62
2017-05-13T03:27:08.306Z,13.72
2017-05-13T03:28:08.285Z,13.66
2017-05-13T03:29:08.258Z,13.71
2017-05-13T03:30:07.943Z,13.72
2017-05-13T03:31:08.216Z,13.72
2017-05-13T03:32:08.192Z,13.72
2017-05-13T03:33:08.421Z,13.73
2017-05-13T03:34:08.403Z,13.79
2017-05-13T03:35:08.133Z,13.79
2017-05-13T03:36:08.115Z,13.79
2017-05-13T03:37:08.090Z,13.75
2017-05-13T03:38:08.063Z,13.76
2017-05-13T03:39:08.043Z,13.83
2017-05-13T03:40:08.020Z,13.73
2017-05-13T03:41:08.003Z,13.73
2017-05-13T03:42:07.982Z,13.81
2017-05-13T03:43:07.964Z,13.69
2017-05-13T03:44:07.943Z,13.76
2017-05-13T03:45:07.912Z,13.72
2017-05-13T03:46:07.892Z,13.72
2017-05-13T03:47:07.872Z,13.83
2017-05-13T03:48:07.852Z,13.73
2017-05-13T03:49:07.838Z,13.79
2017-05-13T03:50:07.808Z,13.79
2017-05-13T03:51:07.485Z,13.79
2017-05-13T03:52:07.776Z,13.72
2017-05-13T03:53:07.742Z,13.84
2017-05-13T03:54:07.718Z,13.81
2017-05-13T03:55:07.700Z,13.8
2017-05-13T03:56:07.681Z,13.88
2017-05-13T03:57:07.704Z,13.86
2017-05-13T03:58:07.690Z,13.86
2017-05-13T03:59:07.617Z,13.94
2017-05-13T04:00:07.588Z,13.9
2017-05-13T04:01:07.576Z,13.87
2017-05-13T04:02:07.549Z,13.87
2017-05-13T04:03:07.534Z,13.87
2017-05-13T04:04:07.504Z,13.91
2017-05-13T04:05:07.484Z,13.86
2017-05-13T04:06:07.471Z,13.93
2017-05-13T04:07:07.443Z,13.87
2017-05-13T04:08:07.430Z,13.84
2017-05-13T04:09:07.408Z,13.88
2017-05-13T04:10:07.380Z,13.87
2017-05-13T04:11:07.355Z,13.83
2017-05-13T04:12:07.340Z,13.83
2017-05-13T04:13:07.316Z,13.87
2017-05-13T04:14:07.296Z,13.83
2017-05-13T04:15:07.280Z,13.79
2017-05-13T04:16:07.258Z,13.76
2017-05-13T04:17:07.230Z,13.81
2017-05-13T04:18:07.221Z,13.79
2017-05-13T04:19:07.185Z,13.76
2017-05-13T04:20:06.919Z,13.88
2017-05-13T04:21:07.140Z,13.87
2017-05-13T04:22:07.126Z,13.84
2017-05-13T04:23:07.104Z,13.83
2017-05-13T04:24:07.090Z,13.86
2017-05-13T04:25:07.053Z,13.81
2017-05-13T04:26:07.040Z,13.96
2017-05-13T04:27:07.021Z,13.98
2017-05-13T04:28:06.997Z,14.01
2017-05-13T04:29:06.977Z,14.01
2017-05-13T04:30:06.950Z,14.16
2017-05-13T04:31:06.930Z,14.11
2017-05-13T04:32:06.911Z,14.17
2017-05-13T04:33:06.887Z,14.19
2017-05-13T04:34:06.880Z,14.12
2017-05-13T04:35:06.848Z,14.2
2017-05-13T04:36:06.824Z,14.24
2017-05-13T04:37:06.807Z,14.19
2017-05-13T04:38:06.781Z,14.27
2017-05-13T04:39:06.767Z,14.29
2017-05-13T04:40:06.741Z,14.29
2017-05-13T04:41:06.764Z,14.26
2017-05-13T04:42:06.704Z,14.29
2017-05-13T04:43:06.674Z,14.29
2017-05-13T04:44:06.660Z,14.31
2017-05-13T04:45:06.342Z,14.34
2017-05-13T04:46:06.604Z,14.31
2017-05-13T04:47:06.634Z,14.38
2017-05-13T04:48:06.569Z,14.38
2017-05-13T04:49:06.557Z,14.39
2017-05-13T04:50:06.532Z,14.42
2017-05-13T04:51:06.568Z,14.44
2017-05-13T04:52:06.485Z,14.41
2017-05-13T04:53:06.467Z,14.42
2017-05-13T04:54:06.449Z,14.46
2017-05-13T04:55:06.421Z,14.41
2017-05-13T04:56:06.416Z,14.44
2017-05-13T04:57:06.440Z,14.45
2017-05-13T04:58:06.359Z,14.54
2017-05-13T04:59:06.642Z,14.52
2017-05-13T05:00:06.345Z,14.59
2017-05-13T05:01:06.299Z,14.54
2017-05-13T05:02:06.281Z,14.59
2017-05-13T05:03:06.256Z,14.63
2017-05-13T05:04:06.243Z,14.63
2017-05-13T05:05:06.211Z,14.71
2017-05-13T05:06:06.188Z,14.85
2017-05-13T05:07:06.169Z,14.71
2017-05-13T05:08:06.155Z,14.8
2017-05-13T05:09:06.149Z,14.86
2017-05-13T05:10:06.108Z,14.97
2017-05-13T05:11:06.089Z,14.94
2017-05-13T05:12:06.062Z,14.97
2017-05-13T05:13:06.041Z,15.01
2017-05-13T05:14:06.024Z,15.05
2017-05-13T05:15:06.265Z,14.98
2017-05-13T05:16:05.982Z,15.03
2017-05-13T05:17:05.978Z,15.07
2017-05-13T05:18:05.939Z,15.04
2017-05-13T05:19:05.919Z,14.94
2017-05-13T05:20:05.937Z,15.01
2017-05-13T05:21:05.935Z,15.01
2017-05-13T05:22:05.857Z,14.97
2017-05-13T05:23:05.832Z,15.03
2017-05-13T05:24:05.836Z,15
2017-05-13T05:25:05.794Z,14.97
2017-05-13T05:26:05.825Z,14.98
2017-05-13T05:27:05.748Z,15.01
2017-05-13T05:28:05.435Z,15
2017-05-13T05:29:05.715Z,15.11
2017-05-13T05:30:05.697Z,15.04
2017-05-13T05:31:05.673Z,15.03
2017-05-13T05:32:05.684Z,15.01
2017-05-13T05:33:05.626Z,14.94
2017-05-13T05:34:05.607Z,14.97
2017-05-13T05:35:05.590Z,15.12
2017-05-13T05:36:05.571Z,15.13
2017-05-13T05:37:05.553Z,15.15
2017-05-13T05:38:05.528Z,15.16
2017-05-13T05:39:05.517Z,15.19
2017-05-13T05:40:05.484Z,15.2
2017-05-13T05:41:05.527Z,15.18
2017-05-13T05:42:05.688Z,15.2
2017-05-13T05:43:05.126Z,15.15
2017-05-13T05:44:05.110Z,15.3
2017-05-13T05:45:05.380Z,15.2
2017-05-13T05:46:05.371Z,15.27
2017-05-13T05:47:05.347Z,15.28
2017-05-13T05:48:05.320Z,15.33
2017-05-13T05:49:05.297Z,15.35
2017-05-13T05:50:05.273Z,15.4
2017-05-13T05:51:05.255Z,15.31
2017-05-13T05:52:05.246Z,15.43
2017-05-13T05:53:05.217Z,15.44
2017-05-13T05:54:05.205Z,15.35
2017-05-13T05:55:04.873Z,15.49
2017-05-13T05:56:05.151Z,15.51
2017-05-13T05:57:05.151Z,15.64
2017-05-13T05:58:05.162Z,15.59
2017-05-13T05:59:05.093Z,15.71
2017-05-13T06:00:05.071Z,15.7
2017-05-13T06:01:04.753Z,15.74
2017-05-13T06:02:05.033Z,15.78
2017-05-13T06:03:05.014Z,15.81
2017-05-13T06:04:04.996Z,15.76
2017-05-13T06:05:04.984Z,15.74
2017-05-13T06:06:04.951Z,15.8
2017-05-13T06:07:04.924Z,15.76
2017-05-13T06:08:04.916Z,15.77
2017-05-13T06:09:05.132Z,15.78
2017-05-13T06:10:04.862Z,15.81
2017-05-13T06:11:04.853Z,15.78
2017-05-13T06:12:04.828Z,15.86
2017-05-13T06:13:04.814Z,15.81
2017-05-13T06:14:04.791Z,15.86
2017-05-13T06:15:04.769Z,15.88
2017-05-13T06:16:04.744Z,15.96
2017-05-13T06:17:04.716Z,15.98
2017-05-13T06:18:04.705Z,15.99
2017-05-13T06:19:04.684Z,15.98
2017-05-13T06:20:04.665Z,16.13
2017-05-13T06:21:04.644Z,16.08
2017-05-13T06:22:04.628Z,16.26
2017-05-13T06:23:04.606Z,16.26
2017-05-13T06:24:04.285Z,16.23
2017-05-13T06:25:04.572Z,16.25
2017-05-13T06:26:04.546Z,16.27
2017-05-13T06:27:04.525Z,16.3
2017-05-13T06:28:04.205Z,16.34
2017-05-13T06:29:04.175Z,16.3
2017-05-13T06:30:04.459Z,16.37
2017-05-13T06:31:04.141Z,16.3
2017-05-13T06:32:04.423Z,16.37
2017-05-13T06:33:04.406Z,16.42
2017-05-13T06:34:04.377Z,16.48
2017-05-13T06:35:04.055Z,16.47
2017-05-13T06:36:04.384Z,16.47
2017-05-13T06:37:04.317Z,16.5
2017-05-13T06:38:04.300Z,16.51
2017-05-13T06:39:04.334Z,16.45
2017-05-13T06:40:04.253Z,16.59
2017-05-13T06:41:04.241Z,16.57
2017-05-13T06:42:04.213Z,16.63
2017-05-13T06:43:04.199Z,16.63
2017-05-13T06:44:04.179Z,16.63
2017-05-13T06:45:04.155Z,16.67
2017-05-13T06:46:04.139Z,16.7
2017-05-13T06:47:04.120Z,16.69
2017-05-13T06:48:04.144Z,16.72
2017-05-13T06:49:03.779Z,16.65
2017-05-13T06:50:04.055Z,16.78
2017-05-13T06:51:04.039Z,16.72
2017-05-13T06:52:04.075Z,16.9
2017-05-13T06:53:04.048Z,16.82
2017-05-13T06:54:03.982Z,16.9
2017-05-13T06:55:03.965Z,16.98
2017-05-13T06:56:03.943Z,17
2017-05-13T06:57:03.924Z,16.92
2017-05-13T06:58:03.901Z,16.99
2017-05-13T06:59:03.877Z,17.02
2017-05-13T07:00:03.604Z,17
2017-05-13T07:01:03.848Z,17.06
2017-05-13T07:02:03.820Z,17.06
2017-05-13T07:03:03.801Z,17.07
2017-05-13T07:04:03.788Z,17.17
2017-05-13T07:05:03.813Z,17.14
2017-05-13T07:06:03.754Z,17.18
2017-05-13T07:07:03.420Z,17.12
2017-05-13T07:08:03.708Z,17.25
2017-05-13T07:09:03.688Z,17.3
2017-05-13T07:10:03.669Z,17.07
2017-05-13T07:11:03.645Z,17.21
2017-05-13T07:12:03.623Z,17.2
2017-05-13T07:13:03.609Z,17.25
2017-05-13T07:14:03.584Z,17.2
2017-05-13T07:15:03.575Z,17.25
2017-05-13T07:16:03.547Z,17.28
2017-05-13T07:17:03.534Z,17.28
2017-05-13T07:18:03.530Z,17.35
2017-05-13T07:19:03.488Z,17.33
2017-05-13T07:20:03.470Z,17.43
2017-05-13T07:21:03.457Z,17.43
2017-05-13T07:22:03.447Z,17.38
2017-05-13T07:23:03.417Z,17.36
2017-05-13T07:24:03.393Z,17.39
2017-05-13T07:25:03.370Z,17.42
2017-05-13T07:26:03.353Z,17.42
2017-05-13T07:27:03.035Z,17.53
2017-05-13T07:28:03.315Z,17.54
2017-05-13T07:29:03.300Z,17.62
2017-05-13T07:30:03.324Z,17.65
2017-05-13T07:31:03.259Z,17.62
2017-05-13T07:32:03.235Z,17.74
2017-05-13T07:33:03.220Z,17.8
2017-05-13T07:34:03.219Z,17.83
2017-05-13T07:35:03.182Z,17.81
2017-05-13T07:36:03.159Z,17.87
2017-05-13T07:37:02.545Z,17.94
2017-05-13T07:38:03.121Z,17.83
2017-05-13T07:39:03.099Z,17.8
2017-05-13T07:40:03.086Z,17.77
2017-05-13T07:41:03.063Z,17.81
2017-05-13T07:42:03.043Z,17.84
2017-05-13T07:43:03.081Z,17.84
2017-05-13T07:44:02.710Z,17.83
2017-05-13T07:45:02.991Z,17.8
2017-05-13T07:46:02.975Z,17.76
2017-05-13T07:47:03.005Z,17.86
2017-05-13T07:48:02.935Z,17.84
2017-05-13T07:49:02.909Z,17.76
2017-05-13T07:50:02.880Z,17.84
2017-05-13T07:51:02.875Z,17.8
2017-05-13T07:52:02.858Z,17.94
2017-05-13T07:53:02.833Z,17.94
2017-05-13T07:54:02.815Z,17.92
2017-05-13T07:55:02.798Z,17.98
2017-05-13T07:56:02.776Z,17.91
2017-05-13T07:57:02.757Z,17.95
2017-05-13T07:58:02.740Z,17.79
2017-05-13T07:59:02.421Z,17.84
2017-05-13T08:00:02.696Z,17.83
2017-05-13T08:01:02.681Z,17.84
2017-05-13T08:02:02.675Z,17.84
2017-05-13T08:03:02.644Z,17.89
2017-05-13T08:04:02.617Z,17.79
2017-05-13T08:05:02.604Z,17.95
2017-05-13T08:06:02.579Z,17.98
2017-05-13T08:07:02.563Z,17.99
2017-05-13T08:08:02.549Z,17.92
2017-05-13T08:09:02.226Z,18.01
2017-05-13T08:10:02.502Z,18.07
2017-05-13T08:11:02.482Z,18.09
2017-05-13T08:12:02.467Z,18.21
2017-05-13T08:13:02.196Z,18.26
2017-05-13T08:14:02.425Z,18.32
2017-05-13T08:15:02.418Z,18.25
2017-05-13T08:16:02.406Z,18.31
2017-05-13T08:17:02.399Z,18.38
2017-05-13T08:18:02.370Z,18.44
2017-05-13T08:19:02.344Z,18.49
2017-05-13T08:20:02.366Z,18.54
2017-05-13T08:21:02.312Z,18.62
2017-05-13T08:22:02.288Z,18.59
2017-05-13T08:23:02.268Z,18.66
2017-05-13T08:24:02.254Z,18.59
2017-05-13T08:25:02.221Z,18.64
2017-05-13T08:26:02.206Z,18.71
2017-05-13T08:27:02.201Z,18.78
2017-05-13T08:28:02.165Z,18.79
2017-05-13T08:29:01.847Z,18.89
2017-05-13T08:30:02.141Z,18.86
2017-05-13T08:31:02.111Z,18.84
2017-05-13T08:32:02.403Z,18.91
2017-05-13T08:33:02.073Z,18.9
2017-05-13T08:34:02.057Z,18.97
2017-05-13T08:35:02.050Z,18.83
2017-05-13T08:36:02.021Z,18.86
2017-05-13T08:37:01.996Z,18.82
2017-05-13T08:38:01.989Z,18.86
2017-05-13T08:39:01.966Z,18.86
2017-05-13T08:40:01.641Z,18.84
2017-05-13T08:41:01.922Z,18.94
2017-05-13T08:42:01.899Z,18.93
2017-05-13T08:43:01.892Z,19.01
2017-05-13T08:44:01.871Z,18.97
2017-05-13T08:45:01.852Z,19.02
2017-05-13T08:46:01.830Z,19.12
2017-05-13T08:47:01.816Z,19.21
2017-05-13T08:48:01.488Z,19.17
2017-05-13T08:49:01.784Z,19.31
2017-05-13T08:50:01.762Z,19.46
2017-05-13T08:51:01.738Z,19.67
2017-05-13T08:52:01.758Z,19.75
2017-05-13T08:53:01.712Z,19.82
2017-05-13T08:54:01.686Z,20.05
2017-05-13T08:55:01.665Z,20.16
2017-05-13T08:56:01.655Z,20.19
2017-05-13T08:57:01.635Z,20.19
2017-05-13T08:58:01.615Z,20.23
2017-05-13T08:59:01.615Z,20.22
2017-05-13T09:00:01.588Z,20.31
2017-05-13T09:01:01.565Z,20.4
2017-05-13T09:02:01.237Z,20.34
2017-05-13T09:03:01.533Z,20.5
2017-05-13T09:04:01.560Z,20.51
2017-05-13T09:05:01.506Z,20.6
2017-05-13T09:06:01.484Z,20.63
2017-05-13T09:07:01.170Z,20.61
2017-05-13T09:08:01.139Z,20.63
2017-05-13T09:09:01.425Z,20.73
2017-05-13T09:10:01.116Z,20.78
2017-05-13T09:11:01.106Z,20.75
2017-05-13T09:12:01.388Z,20.78
2017-05-13T09:13:01.355Z,20.75
2017-05-13T09:14:01.345Z,20.91
2017-05-13T09:15:01.365Z,20.91
2017-05-13T09:16:01.314Z,20.97
2017-05-13T09:17:01.294Z,20.96
2017-05-13T09:18:01.273Z,21.09
2017-05-13T09:19:01.281Z,21.28
2017-05-13T09:20:01.244Z,21.38
2017-05-13T09:21:01.219Z,21.63
2017-05-13T09:22:01.209Z,21.74
2017-05-13T09:23:01.203Z,21.93
2017-05-13T09:24:01.199Z,22.12
2017-05-13T09:25:01.164Z,22.42
2017-05-13T09:26:01.147Z,22.61
2017-05-13T09:27:01.127Z,22.76
2017-05-13T09:28:01.114Z,23
2017-05-13T09:29:01.107Z,23.25
2017-05-13T09:30:01.080Z,23.44
2017-05-13T09:31:01.075Z,23.5
2017-05-13T09:32:01.065Z,23.49
2017-05-13T09:33:01.043Z,23.49
2017-05-13T09:34:01.074Z,23.41
2017-05-13T09:35:01.025Z,23.56
2017-05-13T09:36:00.991Z,23.86
2017-05-13T09:37:00.996Z,24.16
2017-05-13T09:38:00.975Z,24.42
2017-05-13T09:39:00.961Z,24.48
2017-05-13T09:40:00.944Z,24.46
2017-05-13T09:41:00.945Z,24.63
2017-05-13T09:42:00.713Z,24.68
2017-05-13T09:43:00.905Z,24.64
2017-05-13T09:44:00.898Z,24.53
2017-05-13T09:45:00.896Z,24.39
2017-05-13T09:46:00.569Z,24.18
2017-05-13T09:47:00.856Z,23.97
2017-05-13T09:48:00.549Z,23.86
2017-05-13T09:49:00.879Z,23.6
2017-05-13T09:50:00.869Z,23.42
2017-05-13T09:51:00.512Z,23.21
2017-05-13T09:52:00.796Z,23.12
2017-05-13T09:53:00.784Z,23
2017-05-13T09:54:00.761Z,22.89
2017-05-13T09:55:00.760Z,22.82
2017-05-13T09:56:00.741Z,22.85
2017-05-13T09:57:00.721Z,23.03
2017-05-13T09:58:00.701Z,23.18
2017-05-13T09:59:00.699Z,23.41
2017-05-13T10:00:00.680Z,23.68
2017-05-13T10:01:00.719Z,24.02
2017-05-13T10:02:00.654Z,24.31
2017-05-13T10:03:00.638Z,24.79
2017-05-13T10:04:00.325Z,25.05
2017-05-13T10:05:00.614Z,25.14
2017-05-13T10:06:00.601Z,25.02
2017-05-13T10:07:00.587Z,24.9
2017-05-13T10:08:00.578Z,24.74
2017-05-13T10:09:00.571Z,24.44
2017-05-13T10:10:00.563Z,24.21
2017-05-13T10:11:00.540Z,23.99
2017-05-13T10:12:00.587Z,23.75
2017-05-13T10:13:00.519Z,23.41
2017-05-13T10:14:00.501Z,23.09
2017-05-13T10:15:00.479Z,22.84
2017-05-13T10:16:00.477Z,22.56
2017-05-13T10:17:00.457Z,22.46
2017-05-13T10:18:00.142Z,22.29
2017-05-13T10:19:00.427Z,22.17
2017-05-13T10:20:00.420Z,22.09
2017-05-13T10:21:00.102Z,21.93
2017-05-13T10:22:00.386Z,21.93
2017-05-13T10:23:00.369Z,21.74
2017-05-13T10:24:00.355Z,21.77
2017-05-13T10:25:00.342Z,21.66
2017-05-13T10:26:00.329Z,21.71
2017-05-13T10:27:00.317Z,21.64
2017-05-13T10:28:00.298Z,21.66
2017-05-13T10:29:00.280Z,21.73
2017-05-13T10:30:00.314Z,21.9
2017-05-13T10:31:00.254Z,22.44
2017-05-13T10:32:00.231Z,23.07
2017-05-13T10:33:00.215Z,23.84
2017-05-13T10:34:00.200Z,24.39
2017-05-13T10:35:00.193Z,24.93
2017-05-13T10:36:00.173Z,25.36
2017-05-13T10:37:00.165Z,25.75
2017-05-13T10:38:00.445Z,25.72
2017-05-13T10:39:00.137Z,25.59
2017-05-13T10:40:00.135Z,25.75
2017-05-13T10:40:59.813Z,26.06
2017-05-13T10:41:59.811Z,26.11
2017-05-13T10:43:00.103Z,26.06
2017-05-13T10:44:00.079Z,25.69
2017-05-13T10:45:00.069Z,25.44
2017-05-13T10:46:00.067Z,25.09
2017-05-13T10:47:00.062Z,24.97
2017-05-13T10:48:00.039Z,24.66
2017-05-13T10:49:00.031Z,24.37
2017-05-13T10:49:59.727Z,24.05
2017-05-13T10:51:00.016Z,23.89
2017-05-13T10:51:59.697Z,23.56
2017-05-13T10:52:59.984Z,23.34
2017-05-13T10:53:59.663Z,23.19
2017-05-13T10:54:59.955Z,23.12
2017-05-13T10:56:00.003Z,22.96
2017-05-13T10:56:59.628Z,22.96
2017-05-13T10:57:59.906Z,23.32
2017-05-13T10:58:59.899Z,23.78
2017-05-13T10:59:59.881Z,24.19
2017-05-13T11:00:59.866Z,24.66
2017-05-13T11:01:59.914Z,24.92
2017-05-13T11:02:59.861Z,25.19
2017-05-13T11:03:59.831Z,25.2
2017-05-13T11:04:59.525Z,25.01
2017-05-13T11:05:59.864Z,24.89
2017-05-13T11:06:59.803Z,24.6
2017-05-13T11:07:59.795Z,24.45
2017-05-13T11:08:59.781Z,24.23
2017-05-13T11:09:59.770Z,23.99
2017-05-13T11:10:59.975Z,23.68
2017-05-13T11:11:59.748Z,23.52
2017-05-13T11:12:59.732Z,23.47
2017-05-13T11:13:59.720Z,23.37
2017-05-13T11:14:59.709Z,23.22
2017-05-13T11:15:59.697Z,23.14
2017-05-13T11:16:59.681Z,23.16
2017-05-13T11:17:59.715Z,23.12
2017-05-13T11:18:59.710Z,23.07
2017-05-13T11:19:59.648Z,23.06
2017-05-13T11:20:59.628Z,23
2017-05-13T11:21:59.653Z,23.16
2017-05-13T11:22:59.301Z,23.25
2017-05-13T11:23:59.636Z,23.41
2017-05-13T11:24:59.591Z,23.5
2017-05-13T11:25:59.555Z,23.57
2017-05-13T11:26:59.549Z,23.71
2017-05-13T11:27:59.537Z,23.69
2017-05-13T11:28:59.518Z,23.6
2017-05-13T11:29:59.499Z,23.69
2017-05-13T11:30:59.485Z,23.69
2017-05-13T11:31:59.465Z,23.69
2017-05-13T11:32:59.447Z,23.68
2017-05-13T11:33:59.133Z,23.64
2017-05-13T11:34:59.425Z,23.68
2017-05-13T11:35:59.448Z,23.68
2017-05-13T11:36:59.384Z,23.63
2017-05-13T11:37:59.381Z,23.62
2017-05-13T11:38:59.353Z,23.41
2017-05-13T11:39:59.337Z,23.37
2017-05-13T11:40:59.321Z,23.22
2017-05-13T11:41:59.313Z,23.14
2017-05-13T11:42:59.293Z,23.07
2017-05-13T11:43:59.274Z,23.12
2017-05-13T11:44:59.268Z,23.12
2017-05-13T11:45:59.245Z,23.12
2017-05-13T11:46:59.286Z,23.21
2017-05-13T11:47:59.221Z,23.21
2017-05-13T11:48:59.197Z,23.16
2017-05-13T11:49:59.180Z,23.11
2017-05-13T11:50:59.166Z,23.15
2017-05-13T11:51:59.154Z,23.11
2017-05-13T11:52:59.134Z,23.06
2017-05-13T11:53:59.117Z,23.04
2017-05-13T11:54:59.097Z,23.12
2017-05-13T11:55:59.087Z,23.06
2017-05-13T11:56:59.069Z,23.15
2017-05-13T11:57:59.059Z,23.11
2017-05-13T11:58:58.734Z,23.01
2017-05-13T11:59:59.268Z,22.96
2017-05-13T12:00:58.703Z,22.91
2017-05-13T12:01:58.740Z,22.88
2017-05-13T12:02:58.977Z,22.85
2017-05-13T12:03:58.661Z,22.78
2017-05-13T12:04:58.942Z,22.69
2017-05-13T12:05:58.930Z,22.69
2017-05-13T12:06:58.913Z,22.61
2017-05-13T12:07:58.890Z,22.57
2017-05-13T12:08:58.878Z,22.59
2017-05-13T12:09:58.858Z,22.61
2017-05-13T12:10:58.846Z,22.61
2017-05-13T12:11:58.830Z,22.6
2017-05-13T12:12:58.817Z,22.66
2017-05-13T12:13:58.806Z,22.7
2017-05-13T12:14:58.782Z,22.84
2017-05-13T12:15:58.770Z,22.84
2017-05-13T12:16:58.798Z,23
2017-05-13T12:17:58.733Z,22.99
2017-05-13T12:18:58.717Z,23
2017-05-13T12:19:58.704Z,22.88
2017-05-13T12:20:58.683Z,22.93
2017-05-13T12:21:58.712Z,22.85
2017-05-13T12:22:58.654Z,22.88
2017-05-13T12:23:58.643Z,22.99
2017-05-13T12:24:58.620Z,23.03
2017-05-13T12:25:58.607Z,23.15
2017-05-13T12:26:58.288Z,23.11
2017-05-13T12:27:58.582Z,23.12
2017-05-13T12:28:58.599Z,23.39
2017-05-13T12:29:58.543Z,23.42
2017-05-13T12:30:58.525Z,23.56
2017-05-13T12:31:58.219Z,23.69
2017-05-13T12:32:58.244Z,23.77
2017-05-13T12:33:58.475Z,23.89
2017-05-13T12:34:58.162Z,23.84
2017-05-13T12:35:58.145Z,23.75
2017-05-13T12:36:58.431Z,23.69
2017-05-13T12:37:58.115Z,23.63
2017-05-13T12:38:58.404Z,23.68
2017-05-13T12:39:58.436Z,23.75
2017-05-13T12:40:58.376Z,23.81
2017-05-13T12:41:58.355Z,23.71
2017-05-13T12:42:58.336Z,23.64
2017-05-13T12:43:58.323Z,23.5
2017-05-13T12:44:58.300Z,23.38
2017-05-13T12:45:58.286Z,23.38
2017-05-13T12:46:58.282Z,23.38
2017-05-13T12:47:58.259Z,23.35
2017-05-13T12:48:58.242Z,23.37
2017-05-13T12:49:58.229Z,23.29
2017-05-13T12:50:58.212Z,23.26
2017-05-13T12:51:58.198Z,23.31
2017-05-13T12:52:58.182Z,23.32
2017-05-13T12:53:58.170Z,23.35
2017-05-13T12:54:58.150Z,23.22